臺北終端管制區 - 桃園掃描雷達席

METAR RCTP 181530Z 12004KT 080V170 9999 FEW015 BKN025 BKN080 26/25 Q1005 NOSIG RMK A2969=

站台狀態:Offline
最後更新:2019-08-18 23:30:02